sensor_id;sensor_type;location;lat;lon;timestamp;pressure;altitude;pressure_sealevel;temperature;humidity
78014;BME280;67222;50.182;8.734;2023-12-04T05:31:28;100518.16;;;-3.07;81.41
78014;BME280;67222;50.182;8.734;2023-12-04T05:33:53;100515.47;;;-2.94;81.05
78014;BME280;67222;50.182;8.734;2023-12-04T05:36:18;100507.53;;;-2.81;81.62
78014;BME280;67222;50.182;8.734;2023-12-04T05:38:44;100503.94;;;-3.02;80.80
78014;BME280;67222;50.182;8.734;2023-12-04T05:41:09;100513.47;;;-2.90;81.14
78014;BME280;67222;50.182;8.734;2023-12-04T05:43:34;100512.47;;;-3.00;80.39
78014;BME280;67222;50.182;8.734;2023-12-04T05:46:00;100512.66;;;-2.91;80.74
78014;BME280;67222;50.182;8.734;2023-12-04T05:48:25;100499.25;;;-2.86;81.32
78014;BME280;67222;50.182;8.734;2023-12-04T05:50:50;100500.09;;;-2.75;81.50
78014;BME280;67222;50.182;8.734;2023-12-04T05:53:16;100494.53;;;-2.70;81.60
78014;BME280;67222;50.182;8.734;2023-12-04T05:55:41;100486.94;;;-2.62;80.56
78014;BME280;67222;50.182;8.734;2023-12-04T05:58:07;100483.38;;;-2.72;80.55
78014;BME280;67222;50.182;8.734;2023-12-04T06:00:32;100482.63;;;-2.96;81.15
78014;BME280;67222;50.182;8.734;2023-12-04T06:02:57;100483.03;;;-3.25;81.48
78014;BME280;67222;50.182;8.734;2023-12-04T06:05:23;100494.59;;;-3.40;82.52
78014;BME280;67222;50.182;8.734;2023-12-04T06:07:48;100488.34;;;-3.26;82.35
78014;BME280;67222;50.182;8.734;2023-12-04T06:10:14;100484.88;;;-3.38;82.95
78014;BME280;67222;50.182;8.734;2023-12-04T06:12:39;100463.72;;;-3.22;83.50
78014;BME280;67222;50.182;8.734;2023-12-04T06:15:05;100465.84;;;-3.16;83.51
78014;BME280;67222;50.182;8.734;2023-12-04T06:17:30;100464.22;;;-3.06;83.30
78014;BME280;67222;50.182;8.734;2023-12-04T06:19:56;100467.19;;;-2.99;82.66
78014;BME280;67222;50.182;8.734;2023-12-04T06:22:21;100471.22;;;-3.07;82.31
78014;BME280;67222;50.182;8.734;2023-12-04T06:24:47;100464.00;;;-3.03;82.66
78014;BME280;67222;50.182;8.734;2023-12-04T06:27:16;100455.41;;;-3.16;83.03
78014;BME280;67222;50.182;8.734;2023-12-04T06:29:42;100449.16;;;-3.14;83.17
78014;BME280;67222;50.182;8.734;2023-12-04T06:32:08;100454.59;;;-3.17;83.66
78014;BME280;67222;50.182;8.734;2023-12-04T06:34:34;100458.19;;;-3.07;82.04
78014;BME280;67222;50.182;8.734;2023-12-04T06:36:59;100469.56;;;-3.43;83.67
78014;BME280;67222;50.182;8.734;2023-12-04T06:39:30;100463.88;;;-3.48;84.27
78014;BME280;67222;50.182;8.734;2023-12-04T06:41:57;100463.53;;;-3.43;83.94
78014;BME280;67222;50.182;8.734;2023-12-04T06:44:23;100465.94;;;-3.64;84.10
78014;BME280;67222;50.182;8.734;2023-12-04T06:46:48;100475.91;;;-3.58;85.28
78014;BME280;67222;50.182;8.734;2023-12-04T06:49:17;100469.63;;;-3.55;84.80
78014;BME280;67222;50.182;8.734;2023-12-04T06:51:42;100470.09;;;-3.61;85.15
78014;BME280;67222;50.182;8.734;2023-12-04T06:54:08;100468.16;;;-3.71;85.00
78014;BME280;67222;50.182;8.734;2023-12-04T06:56:33;100465.75;;;-3.74;85.00
78014;BME280;67222;50.182;8.734;2023-12-04T06:58:58;100471.91;;;-3.75;85.65
78014;BME280;67222;50.182;8.734;2023-12-04T07:01:24;100470.28;;;-3.41;85.13
78014;BME280;67222;50.182;8.734;2023-12-04T07:03:49;100464.06;;;-3.27;84.17
78014;BME280;67222;50.182;8.734;2023-12-04T07:06:14;100452.94;;;-3.18;84.17
78014;BME280;67222;50.182;8.734;2023-12-04T07:08:40;100442.56;;;-2.95;83.62
78014;BME280;67222;50.182;8.734;2023-12-04T07:11:06;100438.88;;;-2.82;82.35
78014;BME280;67222;50.182;8.734;2023-12-04T07:13:32;100430.59;;;-2.76;81.90
78014;BME280;67222;50.182;8.734;2023-12-04T07:15:58;100430.84;;;-2.79;82.18
78014;BME280;67222;50.182;8.734;2023-12-04T07:18:25;100434.28;;;-2.78;81.08
78014;BME280;67222;50.182;8.734;2023-12-04T07:20:50;100435.19;;;-2.90;81.29
78014;BME280;67222;50.182;8.734;2023-12-04T07:23:15;100427.16;;;-2.76;81.35
78014;BME280;67222;50.182;8.734;2023-12-04T07:25:40;100415.88;;;-2.65;80.86
78014;BME280;67222;50.182;8.734;2023-12-04T07:28:06;100409.38;;;-2.60;80.91
78014;BME280;67222;50.182;8.734;2023-12-04T07:30:31;100404.84;;;-2.58;80.70
78014;BME280;67222;50.182;8.734;2023-12-04T07:32:57;100400.47;;;-2.57;81.08
78014;BME280;67222;50.182;8.734;2023-12-04T07:35:22;100398.56;;;-2.66;81.22
78014;BME280;67222;50.182;8.734;2023-12-04T07:37:47;100387.66;;;-2.60;81.72
78014;BME280;67222;50.182;8.734;2023-12-04T07:40:13;100379.00;;;-2.72;81.07
78014;BME280;67222;50.182;8.734;2023-12-04T07:42:39;100370.44;;;-2.63;81.62
78014;BME280;67222;50.182;8.734;2023-12-04T07:45:04;100381.00;;;-2.76;81.16
78014;BME280;67222;50.182;8.734;2023-12-04T07:47:30;100386.81;;;-2.83;81.39
78014;BME280;67222;50.182;8.734;2023-12-04T07:49:55;100377.81;;;-2.90;80.93
78014;BME280;67222;50.182;8.734;2023-12-04T07:52:20;100384.94;;;-2.92;81.64
78014;BME280;67222;50.182;8.734;2023-12-04T07:54:46;100393.56;;;-3.03;81.59
78014;BME280;67222;50.182;8.734;2023-12-04T07:57:11;100394.41;;;-2.80;81.77
78014;BME280;67222;50.182;8.734;2023-12-04T07:59:36;100386.22;;;-2.64;81.75
78014;BME280;67222;50.182;8.734;2023-12-04T08:02:02;100382.31;;;-2.70;80.99
78014;BME280;67222;50.182;8.734;2023-12-04T08:04:27;100377.69;;;-2.66;81.34
78014;BME280;67222;50.182;8.734;2023-12-04T08:06:52;100370.63;;;-2.44;80.77
78014;BME280;67222;50.182;8.734;2023-12-04T08:09:17;100377.75;;;-2.34;81.05
78014;BME280;67222;50.182;8.734;2023-12-04T08:11:43;100376.53;;;-2.30;80.54
78014;BME280;67222;50.182;8.734;2023-12-04T08:14:08;100382.28;;;-2.36;79.34
78014;BME280;67222;50.182;8.734;2023-12-04T08:16:33;100380.81;;;-2.29;80.25
78014;BME280;67222;50.182;8.734;2023-12-04T08:18:59;100382.03;;;-2.33;79.46
78014;BME280;67222;50.182;8.734;2023-12-04T08:21:24;100378.56;;;-2.23;79.32
78014;BME280;67222;50.182;8.734;2023-12-04T08:23:49;100377.59;;;-2.22;78.63
78014;BME280;67222;50.182;8.734;2023-12-04T08:26:21;100367.63;;;-2.17;78.95
78014;BME280;67222;50.182;8.734;2023-12-04T08:28:47;100362.31;;;-1.94;78.26
78014;BME280;67222;50.182;8.734;2023-12-04T08:31:12;100349.88;;;-2.02;77.05
78014;BME280;67222;50.182;8.734;2023-12-04T08:33:37;100356.75;;;-2.01;77.65
78014;BME280;67222;50.182;8.734;2023-12-04T08:36:03;100356.19;;;-2.04;77.92
78014;BME280;67222;50.182;8.734;2023-12-04T08:38:28;100351.19;;;-2.07;77.44
78014;BME280;67222;50.182;8.734;2023-12-04T08:40:54;100345.63;;;-2.14;77.31
78014;BME280;67222;50.182;8.734;2023-12-04T08:43:19;100335.34;;;-1.95;77.76
78014;BME280;67222;50.182;8.734;2023-12-04T08:45:45;100332.56;;;-1.82;77.00
78014;BME280;67222;50.182;8.734;2023-12-04T08:48:10;100324.59;;;-1.80;76.87
78014;BME280;67222;50.182;8.734;2023-12-04T08:50:36;100318.34;;;-1.68;76.70
78014;BME280;67222;50.182;8.734;2023-12-04T08:53:03;100308.06;;;-1.60;77.01
78014;BME280;67222;50.182;8.734;2023-12-04T08:55:28;100308.66;;;-1.77;76.27
78014;BME280;67222;50.182;8.734;2023-12-04T08:57:53;100299.31;;;-1.49;76.71
78014;BME280;67222;50.182;8.734;2023-12-04T09:00:19;100298.00;;;-1.44;75.58
78014;BME280;67222;50.182;8.734;2023-12-04T09:02:44;100297.16;;;-1.44;75.21
78014;BME280;67222;50.182;8.734;2023-12-04T09:05:09;100312.97;;;-1.46;74.73
78014;BME280;67222;50.182;8.734;2023-12-04T09:07:36;100303.03;;;-1.52;74.75
78014;BME280;67222;50.182;8.734;2023-12-04T09:10:01;100308.91;;;-1.60;74.45
78014;BME280;67222;50.182;8.734;2023-12-04T09:12:27;100313.56;;;-1.84;75.96
78014;BME280;67222;50.182;8.734;2023-12-04T09:14:52;100298.50;;;-1.71;76.08
78014;BME280;67222;50.182;8.734;2023-12-04T09:17:17;100301.31;;;-1.63;76.01
78014;BME280;67222;50.182;8.734;2023-12-04T09:19:43;100297.53;;;-1.49;75.52
78014;BME280;67222;50.182;8.734;2023-12-04T09:22:08;100301.00;;;-1.48;74.86
78014;BME280;67222;50.182;8.734;2023-12-04T09:24:33;100298.34;;;-1.28;76.33
78014;BME280;67222;50.182;8.734;2023-12-04T09:26:59;100300.38;;;-1.31;74.26
78014;BME280;67222;50.182;8.734;2023-12-04T09:29:24;100289.88;;;-1.41;73.58
78014;BME280;67222;50.182;8.734;2023-12-04T09:31:52;100300.22;;;-1.39;75.21
78014;BME280;67222;50.182;8.734;2023-12-04T09:34:18;100303.50;;;-1.47;74.92
78014;BME280;67222;50.182;8.734;2023-12-04T09:36:45;100304.44;;;-1.48;74.88
78014;BME280;67222;50.182;8.734;2023-12-04T09:39:10;100300.38;;;-1.31;75.10
78014;BME280;67222;50.182;8.734;2023-12-04T09:41:37;100293.41;;;-1.21;74.59
78014;BME280;67222;50.182;8.734;2023-12-04T09:44:03;100300.00;;;-1.27;74.31
78014;BME280;67222;50.182;8.734;2023-12-04T09:46:29;100287.63;;;-1.15;74.33
78014;BME280;67222;50.182;8.734;2023-12-04T09:48:54;100291.06;;;-1.24;73.16
78014;BME280;67222;50.182;8.734;2023-12-04T09:51:21;100287.19;;;-1.30;73.70
78014;BME280;67222;50.182;8.734;2023-12-04T09:53:47;100289.28;;;-1.24;74.52
78014;BME280;67222;50.182;8.734;2023-12-04T09:56:15;100272.19;;;-1.28;73.44
78014;BME280;67222;50.182;8.734;2023-12-04T09:58:41;100268.22;;;-1.12;72.59
78014;BME280;67222;50.182;8.734;2023-12-04T10:01:08;100268.47;;;-1.25;71.75
78014;BME280;67222;50.182;8.734;2023-12-04T10:03:35;100269.59;;;-1.18;72.20
78014;BME280;67222;50.182;8.734;2023-12-04T10:06:00;100271.38;;;-1.28;71.58
78014;BME280;67222;50.182;8.734;2023-12-04T10:08:26;100271.59;;;-1.31;72.46
78014;BME280;67222;50.182;8.734;2023-12-04T10:10:51;100276.56;;;-1.59;71.65
78014;BME280;67222;50.182;8.734;2023-12-04T10:13:16;100266.94;;;-1.58;71.89
78014;BME280;67222;50.182;8.734;2023-12-04T10:15:49;100275.69;;;-1.48;72.60
78014;BME280;67222;50.182;8.734;2023-12-04T10:18:35;100265.72;;;-1.54;72.17
78014;BME280;67222;50.182;8.734;2023-12-04T10:21:00;100268.88;;;-1.60;72.57
78014;BME280;67222;50.182;8.734;2023-12-04T10:23:41;100253.22;;;-1.50;72.46
78014;BME280;67222;50.182;8.734;2023-12-04T10:26:07;100253.28;;;-1.41;71.43
78014;BME280;67222;50.182;8.734;2023-12-04T10:28:34;100248.59;;;-1.37;71.21
78014;BME280;67222;50.182;8.734;2023-12-04T10:30:59;100244.88;;;-1.35;71.27
78014;BME280;67222;50.182;8.734;2023-12-04T10:33:25;100248.66;;;-1.28;71.45
78014;BME280;67222;50.182;8.734;2023-12-04T10:35:53;100238.47;;;-1.21;71.20
78014;BME280;67222;50.182;8.734;2023-12-04T10:38:19;100231.59;;;-1.12;71.47
78014;BME280;67222;50.182;8.734;2023-12-04T10:40:44;100223.53;;;-1.00;71.17
78014;BME280;67222;50.182;8.734;2023-12-04T10:45:40;100225.69;;;-1.14;70.86
78014;BME280;67222;50.182;8.734;2023-12-04T10:48:07;100231.28;;;-0.88;69.99
78014;BME280;67222;50.182;8.734;2023-12-04T10:50:39;100214.06;;;-0.72;70.14
78014;BME280;67222;50.182;8.734;2023-12-04T10:53:06;100219.97;;;-0.89;68.95
78014;BME280;67222;50.182;8.734;2023-12-04T10:55:33;100213.22;;;-0.82;69.55
78014;BME280;67222;50.182;8.734;2023-12-04T10:58:01;100223.97;;;-0.85;69.64
78014;BME280;67222;50.182;8.734;2023-12-04T11:00:28;100221.22;;;-0.64;69.76
78014;BME280;67222;50.182;8.734;2023-12-04T11:02:55;100216.53;;;-0.61;68.53
78014;BME280;67222;50.182;8.734;2023-12-04T11:05:23;100208.81;;;-0.62;69.05
78014;BME280;67222;50.182;8.734;2023-12-04T11:07:54;100204.13;;;-0.39;69.45
78014;BME280;67222;50.182;8.734;2023-12-04T11:10:22;100191.88;;;-0.29;69.24
78014;BME280;67222;50.182;8.734;2023-12-04T11:12:56;100204.28;;;-0.41;67.67
78014;BME280;67222;50.182;8.734;2023-12-04T11:15:23;100203.34;;;-0.49;68.96
78014;BME280;67222;50.182;8.734;2023-12-04T11:17:53;100202.66;;;-0.51;68.66
78014;BME280;67222;50.182;8.734;2023-12-04T11:20:21;100200.56;;;-0.38;69.12
78014;BME280;67222;50.182;8.734;2023-12-04T11:22:49;100192.44;;;-0.35;68.68
78014;BME280;67222;50.182;8.734;2023-12-04T11:25:15;100185.13;;;-0.32;67.50
78014;BME280;67222;50.182;8.734;2023-12-04T11:27:41;100174.91;;;-0.25;67.77
78014;BME280;67222;50.182;8.734;2023-12-04T11:30:08;100175.44;;;-0.12;67.91
78014;BME280;67222;50.182;8.734;2023-12-04T11:32:45;100179.56;;;-0.09;67.18
78014;BME280;67222;50.182;8.734;2023-12-04T11:35:14;100171.88;;;-0.30;66.92
78014;BME280;67222;50.182;8.734;2023-12-04T11:37:41;100177.53;;;-0.15;68.43
78014;BME280;67222;50.182;8.734;2023-12-04T11:40:11;100177.00;;;-0.48;66.80
78014;BME280;67222;50.182;8.734;2023-12-04T11:42:36;100164.44;;;-0.35;68.22
78014;BME280;67222;50.182;8.734;2023-12-04T11:45:05;100157.78;;;-0.19;67.82
78014;BME280;67222;50.182;8.734;2023-12-04T11:47:30;100158.78;;;-0.30;67.33
78014;BME280;67222;50.182;8.734;2023-12-04T11:49:58;100147.22;;;-0.37;67.67
78014;BME280;67222;50.182;8.734;2023-12-04T11:52:33;100137.81;;;-0.30;68.77
78014;BME280;67222;50.182;8.734;2023-12-04T11:55:04;100130.78;;;-0.39;66.46
78014;BME280;67222;50.182;8.734;2023-12-04T11:57:39;100119.06;;;-0.25;68.13
78014;BME280;67222;50.182;8.734;2023-12-04T12:03:03;100101.06;;;-0.57;67.36
78014;BME280;67222;50.182;8.734;2023-12-04T12:05:32;100095.56;;;-0.54;69.71
78014;BME280;67222;50.182;8.734;2023-12-04T12:08:05;100095.66;;;-0.46;68.79
78014;BME280;67222;50.182;8.734;2023-12-04T12:10:31;100088.38;;;-0.52;70.99
78014;BME280;67222;50.182;8.734;2023-12-04T12:12:57;100088.25;;;-0.51;72.48
78014;BME280;67222;50.182;8.734;2023-12-04T12:15:23;100087.56;;;-0.53;73.35
78014;BME280;67222;50.182;8.734;2023-12-04T12:17:49;100076.13;;;-0.62;74.49
78014;BME280;67222;50.182;8.734;2023-12-04T12:20:15;100078.19;;;-0.65;75.88
78014;BME280;67222;50.182;8.734;2023-12-04T12:22:41;100076.03;;;-0.89;76.65
78014;BME280;67222;50.182;8.734;2023-12-04T12:25:10;100061.44;;;-1.01;77.61
78014;BME280;67222;50.182;8.734;2023-12-04T12:27:35;100061.00;;;-0.97;78.27
78014;BME280;67222;50.182;8.734;2023-12-04T12:30:01;100063.91;;;-1.09;79.85
78014;BME280;67222;50.182;8.734;2023-12-04T12:32:30;100053.84;;;-1.14;80.96
78014;BME280;67222;50.182;8.734;2023-12-04T12:34:55;100043.66;;;-1.36;82.88
78014;BME280;67222;50.182;8.734;2023-12-04T12:37:21;100042.28;;;-1.40;83.55
78014;BME280;67222;50.182;8.734;2023-12-04T12:39:46;100039.25;;;-1.45;85.91
78014;BME280;67222;50.182;8.734;2023-12-04T12:42:21;100039.50;;;-1.58;86.35
78014;BME280;67222;50.182;8.734;2023-12-04T12:44:46;100035.78;;;-1.65;86.00
78014;BME280;67222;50.182;8.734;2023-12-04T12:47:14;100043.19;;;-1.70;87.11
78014;BME280;67222;50.182;8.734;2023-12-04T12:49:40;100032.31;;;-1.75;87.72
78014;BME280;67222;50.182;8.734;2023-12-04T12:52:05;100030.56;;;-1.56;87.64
78014;BME280;67222;50.182;8.734;2023-12-04T12:54:33;100019.00;;;-1.53;88.28
78014;BME280;67222;50.182;8.734;2023-12-04T12:57:01;100019.81;;;-1.53;87.44
78014;BME280;67222;50.182;8.734;2023-12-04T12:59:27;100015.97;;;-1.58;87.77
78014;BME280;67222;50.182;8.734;2023-12-04T13:01:52;100003.75;;;-1.38;88.37
78014;BME280;67222;50.182;8.734;2023-12-04T13:04:18;99997.69;;;-1.58;87.13
78014;BME280;67222;50.182;8.734;2023-12-04T13:06:44;99994.50;;;-1.62;88.00
78014;BME280;67222;50.182;8.734;2023-12-04T13:09:09;99996.59;;;-1.65;89.53
78014;BME280;67222;50.182;8.734;2023-12-04T13:11:44;99989.72;;;-1.66;89.45
78014;BME280;67222;50.182;8.734;2023-12-04T13:14:09;99974.03;;;-1.66;89.94
78014;BME280;67222;50.182;8.734;2023-12-04T13:16:34;99973.31;;;-1.68;90.71
78014;BME280;67222;50.182;8.734;2023-12-04T13:19:00;99960.53;;;-1.52;90.43
78014;BME280;67222;50.182;8.734;2023-12-04T13:21:26;99952.97;;;-1.45;90.72
78014;BME280;67222;50.182;8.734;2023-12-04T13:23:51;99957.22;;;-1.35;90.52
78014;BME280;67222;50.182;8.734;2023-12-04T13:26:16;99952.41;;;-1.49;91.59
78014;BME280;67222;50.182;8.734;2023-12-04T13:28:42;99945.66;;;-1.71;92.03
78014;BME280;67222;50.182;8.734;2023-12-04T13:31:07;99940.28;;;-1.69;92.20
78014;BME280;67222;50.182;8.734;2023-12-04T13:33:32;99941.94;;;-1.68;92.50
78014;BME280;67222;50.182;8.734;2023-12-04T13:35:57;99933.44;;;-1.61;92.23
78014;BME280;67222;50.182;8.734;2023-12-04T13:38:23;99930.13;;;-1.63;91.82
78014;BME280;67222;50.182;8.734;2023-12-04T13:40:48;99924.19;;;-1.55;91.70
78014;BME280;67222;50.182;8.734;2023-12-04T13:43:28;99914.84;;;-1.48;91.93
78014;BME280;67222;50.182;8.734;2023-12-04T13:46:12;99911.09;;;-1.36;91.25
78014;BME280;67222;50.182;8.734;2023-12-04T13:48:37;99901.34;;;-1.43;91.32
78014;BME280;67222;50.182;8.734;2023-12-04T13:51:09;99904.41;;;-1.58;91.85
78014;BME280;67222;50.182;8.734;2023-12-04T13:53:34;99902.75;;;-1.59;92.04
78014;BME280;67222;50.182;8.734;2023-12-04T13:56:00;99907.94;;;-1.49;92.77
78014;BME280;67222;50.182;8.734;2023-12-04T13:58:25;99893.94;;;-1.48;92.44
78014;BME280;67222;50.182;8.734;2023-12-04T14:01:06;99887.03;;;-1.39;92.54
78014;BME280;67222;50.182;8.734;2023-12-04T14:03:44;99877.72;;;-1.61;92.01
78014;BME280;67222;50.182;8.734;2023-12-04T14:06:10;99884.56;;;-1.50;93.19
78014;BME280;67222;50.182;8.734;2023-12-04T14:08:36;99882.50;;;-1.57;93.06
78014;BME280;67222;50.182;8.734;2023-12-04T14:11:03;99882.63;;;-1.39;93.40
78014;BME280;67222;50.182;8.734;2023-12-04T14:13:28;99875.22;;;-1.43;92.87
78014;BME280;67222;50.182;8.734;2023-12-04T14:15:53;99872.28;;;-1.31;93.27
78014;BME280;67222;50.182;8.734;2023-12-04T14:18:19;99870.22;;;-1.37;93.13
78014;BME280;67222;50.182;8.734;2023-12-04T14:20:45;99864.72;;;-1.34;93.11
78014;BME280;67222;50.182;8.734;2023-12-04T14:23:10;99868.88;;;-1.41;93.56
78014;BME280;67222;50.182;8.734;2023-12-04T14:25:35;99858.13;;;-1.38;94.03
78014;BME280;67222;50.182;8.734;2023-12-04T14:28:01;99848.53;;;-1.47;95.21
78014;BME280;67222;50.182;8.734;2023-12-04T14:30:27;99839.97;;;-1.39;95.09
78014;BME280;67222;50.182;8.734;2023-12-04T14:32:53;99843.00;;;-1.44;95.09
78014;BME280;67222;50.182;8.734;2023-12-04T14:35:19;99836.38;;;-1.38;95.15
78014;BME280;67222;50.182;8.734;2023-12-04T14:37:45;99838.22;;;-1.48;95.36
78014;BME280;67222;50.182;8.734;2023-12-04T14:40:15;99832.56;;;-1.54;95.55
78014;BME280;67222;50.182;8.734;2023-12-04T14:42:40;99828.69;;;-1.49;96.23
78014;BME280;67222;50.182;8.734;2023-12-04T14:45:06;99821.53;;;-1.38;96.31
78014;BME280;67222;50.182;8.734;2023-12-04T14:47:31;99819.03;;;-1.30;95.11
78014;BME280;67222;50.182;8.734;2023-12-04T14:49:56;99816.81;;;-1.34;95.04
78014;BME280;67222;50.182;8.734;2023-12-04T14:52:23;99811.56;;;-1.25;95.20
78014;BME280;67222;50.182;8.734;2023-12-04T14:54:48;99815.19;;;-1.35;94.54
78014;BME280;67222;50.182;8.734;2023-12-04T14:57:24;99808.34;;;-1.46;95.08
78014;BME280;67222;50.182;8.734;2023-12-04T15:00:09;99811.22;;;-1.49;95.02
78014;BME280;67222;50.182;8.734;2023-12-04T15:02:53;99811.94;;;-1.47;95.04
78014;BME280;67222;50.182;8.734;2023-12-04T15:05:31;99807.66;;;-1.48;94.93
78014;BME280;67222;50.182;8.734;2023-12-04T15:07:58;99798.38;;;-1.33;95.34
78014;BME280;67222;50.182;8.734;2023-12-04T15:10:56;99796.03;;;-1.36;95.04
78014;BME280;67222;50.182;8.734;2023-12-04T15:13:39;99793.34;;;-1.16;94.71
78014;BME280;67222;50.182;8.734;2023-12-04T15:16:34;99794.84;;;-1.14;94.61
78014;BME280;67222;50.182;8.734;2023-12-04T15:19:04;99788.66;;;-1.13;94.52
78014;BME280;67222;50.182;8.734;2023-12-04T15:21:29;99787.38;;;-1.36;94.92
78014;BME280;67222;50.182;8.734;2023-12-04T15:23:54;99779.50;;;-1.27;95.42
78014;BME280;67222;50.182;8.734;2023-12-04T15:26:20;99774.66;;;-1.22;95.47
78014;BME280;67222;50.182;8.734;2023-12-04T15:28:45;99774.38;;;-1.18;95.33
78014;BME280;67222;50.182;8.734;2023-12-04T15:31:11;99773.16;;;-1.24;95.84
78014;BME280;67222;50.182;8.734;2023-12-04T15:33:36;99768.75;;;-1.24;95.67
78014;BME280;67222;50.182;8.734;2023-12-04T15:36:02;99765.19;;;-1.32;95.91
78014;BME280;67222;50.182;8.734;2023-12-04T15:38:28;99759.72;;;-1.29;96.22
78014;BME280;67222;50.182;8.734;2023-12-04T15:40:54;99752.19;;;-1.42;96.17
78014;BME280;67222;50.182;8.734;2023-12-04T15:43:20;99756.44;;;-1.41;96.53
78014;BME280;67222;50.182;8.734;2023-12-04T15:45:45;99746.22;;;-1.34;97.07
78014;BME280;67222;50.182;8.734;2023-12-04T15:48:10;99735.75;;;-1.34;97.17
78014;BME280;67222;50.182;8.734;2023-12-04T15:50:36;99744.00;;;-1.29;97.71
78014;BME280;67222;50.182;8.734;2023-12-04T15:53:02;99734.75;;;-1.24;97.37
78014;BME280;67222;50.182;8.734;2023-12-04T15:55:27;99737.47;;;-1.43;97.63
78014;BME280;67222;50.182;8.734;2023-12-04T15:57:54;99745.69;;;-1.38;98.18
78014;BME280;67222;50.182;8.734;2023-12-04T16:00:27;99741.34;;;-1.47;98.40
78014;BME280;67222;50.182;8.734;2023-12-04T16:02:52;99741.47;;;-1.48;98.75
78014;BME280;67222;50.182;8.734;2023-12-04T16:05:18;99733.72;;;-1.40;98.37
78014;BME280;67222;50.182;8.734;2023-12-04T16:07:43;99744.19;;;-1.40;98.50
78014;BME280;67222;50.182;8.734;2023-12-04T16:10:09;99728.25;;;-1.19;98.78
78014;BME280;67222;50.182;8.734;2023-12-04T16:12:36;99727.28;;;-1.18;99.04
78014;BME280;67222;50.182;8.734;2023-12-04T16:15:03;99734.75;;;-1.24;98.85
78014;BME280;67222;50.182;8.734;2023-12-04T16:17:29;99733.88;;;-1.14;98.74
78014;BME280;67222;50.182;8.734;2023-12-04T16:19:55;99719.66;;;-1.30;98.38
78014;BME280;67222;50.182;8.734;2023-12-04T16:22:25;99723.13;;;-1.39;98.96
78014;BME280;67222;50.182;8.734;2023-12-04T16:24:51;99717.06;;;-1.39;100.00
78014;BME280;67222;50.182;8.734;2023-12-04T16:27:17;99717.50;;;-1.44;100.00
78014;BME280;67222;50.182;8.734;2023-12-04T16:29:43;99719.84;;;-1.41;100.00
78014;BME280;67222;50.182;8.734;2023-12-04T16:32:08;99716.41;;;-1.41;100.00
78014;BME280;67222;50.182;8.734;2023-12-04T16:34:34;99709.53;;;-1.42;100.00
78014;BME280;67222;50.182;8.734;2023-12-04T16:36:59;99706.47;;;-1.38;100.00
78014;BME280;67222;50.182;8.734;2023-12-04T16:39:24;99700.09;;;-1.26;100.00
78014;BME280;67222;50.182;8.734;2023-12-04T16:41:52;99695.22;;;-1.20;100.00
78014;BME280;67222;50.182;8.734;2023-12-04T16:44:18;99685.53;;;-1.10;100.00
78014;BME280;67222;50.182;8.734;2023-12-04T16:46:44;99684.13;;;-1.05;100.00
78014;BME280;67222;50.182;8.734;2023-12-04T16:49:11;99685.97;;;-1.15;99.76
78014;BME280;67222;50.182;8.734;2023-12-04T16:51:36;99686.88;;;-1.06;100.00
78014;BME280;67222;50.182;8.734;2023-12-04T16:54:01;99682.94;;;-0.93;99.33
78014;BME280;67222;50.182;8.734;2023-12-04T16:56:27;99675.16;;;-1.02;99.21
78014;BME280;67222;50.182;8.734;2023-12-04T16:58:52;99675.22;;;-0.94;99.31
78014;BME280;67222;50.182;8.734;2023-12-04T17:01:17;99682.19;;;-1.03;99.53
78014;BME280;67222;50.182;8.734;2023-12-04T17:03:42;99676.66;;;-1.00;100.00
78014;BME280;67222;50.182;8.734;2023-12-04T17:06:08;99666.56;;;-0.95;100.00
78014;BME280;67222;50.182;8.734;2023-12-04T17:08:35;99673.38;;;-0.84;99.99
78014;BME280;67222;50.182;8.734;2023-12-04T17:11:01;99666.41;;;-0.75;99.73
78014;BME280;67222;50.182;8.734;2023-12-04T17:13:26;99667.38;;;-0.76;99.64
78014;BME280;67222;50.182;8.734;2023-12-04T17:15:52;99666.19;;;-0.82;99.75
78014;BME280;67222;50.182;8.734;2023-12-04T17:18:17;99665.59;;;-0.76;99.64
78014;BME280;67222;50.182;8.734;2023-12-04T17:20:42;99660.59;;;-0.69;99.79
78014;BME280;67222;50.182;8.734;2023-12-04T17:23:08;99658.84;;;-0.78;99.22
78014;BME280;67222;50.182;8.734;2023-12-04T17:25:34;99656.50;;;-0.72;99.30
78014;BME280;67222;50.182;8.734;2023-12-04T17:28:01;99652.28;;;-0.65;99.22
78014;BME280;67222;50.182;8.734;2023-12-04T17:30:26;99646.59;;;-0.60;98.98
78014;BME280;67222;50.182;8.734;2023-12-04T17:32:52;99638.56;;;-0.58;98.42
78014;BME280;67222;50.182;8.734;2023-12-04T17:35:17;99632.38;;;-0.57;98.66
78014;BME280;67222;50.182;8.734;2023-12-04T17:37:43;99628.50;;;-0.53;98.96
78014;BME280;67222;50.182;8.734;2023-12-04T17:40:09;99633.25;;;-0.49;98.05
78014;BME280;67222;50.182;8.734;2023-12-04T17:42:35;99627.56;;;-0.44;98.36
78014;BME280;67222;50.182;8.734;2023-12-04T17:45:03;99626.91;;;-0.46;98.08
78014;BME280;67222;50.182;8.734;2023-12-04T17:47:29;99617.03;;;-0.52;98.87
78014;BME280;67222;50.182;8.734;2023-12-04T17:49:54;99616.38;;;-0.54;98.62
78014;BME280;67222;50.182;8.734;2023-12-04T17:52:20;99605.59;;;-0.51;98.66
78014;BME280;67222;50.182;8.734;2023-12-04T17:54:46;99602.97;;;-0.51;98.14
78014;BME280;67222;50.182;8.734;2023-12-04T17:57:12;99595.91;;;-0.33;98.20
78014;BME280;67222;50.182;8.734;2023-12-04T17:59:37;99608.06;;;-0.50;97.55
78014;BME280;67222;50.182;8.734;2023-12-04T18:02:04;99610.72;;;-0.42;98.03
78014;BME280;67222;50.182;8.734;2023-12-04T18:04:29;99614.66;;;-0.38;97.41
78014;BME280;67222;50.182;8.734;2023-12-04T18:06:54;99615.97;;;-0.42;96.90
78014;BME280;67222;50.182;8.734;2023-12-04T18:09:20;99609.03;;;-0.51;97.18
78014;BME280;67222;50.182;8.734;2023-12-04T18:11:45;99605.31;;;-0.40;97.44
78014;BME280;67222;50.182;8.734;2023-12-04T18:14:10;99593.63;;;-0.28;96.40
78014;BME280;67222;50.182;8.734;2023-12-04T18:16:37;99594.56;;;-0.37;96.34
78014;BME280;67222;50.182;8.734;2023-12-04T18:19:03;99601.22;;;-0.43;96.45
78014;BME280;67222;50.182;8.734;2023-12-04T18:21:28;99583.41;;;-0.39;96.60
78014;BME280;67222;50.182;8.734;2023-12-04T18:23:54;99589.25;;;-0.45;96.11
78014;BME280;67222;50.182;8.734;2023-12-04T18:26:19;99586.72;;;-0.37;97.00